sensor_id;sensor_type;location;lat;lon;timestamp;P1;durP1;ratioP1;P2;durP2;ratioP2
80565;SDS011;69915;54.862;10.730;2024-03-23T00:53:01;7.63;;;2.08;;
80565;SDS011;69915;54.862;10.730;2024-03-23T00:55:27;15.10;;;1.90;;
80565;SDS011;69915;54.862;10.730;2024-03-23T00:57:52;13.15;;;2.22;;
80565;SDS011;69915;54.862;10.730;2024-03-23T01:00:18;14.27;;;2.08;;
80565;SDS011;69915;54.862;10.730;2024-03-23T01:02:43;15.52;;;2.45;;
80565;SDS011;69915;54.862;10.730;2024-03-23T01:05:09;7.15;;;1.33;;
80565;SDS011;69915;54.862;10.730;2024-03-23T01:07:35;8.18;;;1.30;;
80565;SDS011;69915;54.862;10.730;2024-03-23T01:10:00;14.27;;;2.00;;
80565;SDS011;69915;54.862;10.730;2024-03-23T01:12:26;10.60;;;2.67;;
80565;SDS011;69915;54.862;10.730;2024-03-23T01:14:51;6.03;;;1.30;;
80565;SDS011;69915;54.862;10.730;2024-03-23T01:17:17;7.38;;;1.27;;
80565;SDS011;69915;54.862;10.730;2024-03-23T01:19:42;8.60;;;1.30;;
80565;SDS011;69915;54.862;10.730;2024-03-23T01:22:08;14.38;;;1.67;;
80565;SDS011;69915;54.862;10.730;2024-03-23T01:24:35;8.95;;;1.65;;
80565;SDS011;69915;54.862;10.730;2024-03-23T01:27:01;14.93;;;1.75;;
80565;SDS011;69915;54.862;10.730;2024-03-23T01:29:26;10.02;;;2.20;;
80565;SDS011;69915;54.862;10.730;2024-03-23T01:31:52;10.85;;;2.25;;
80565;SDS011;69915;54.862;10.730;2024-03-23T01:34:18;6.63;;;2.10;;
80565;SDS011;69915;54.862;10.730;2024-03-23T01:36:44;20.50;;;2.85;;
80565;SDS011;69915;54.862;10.730;2024-03-23T01:39:11;12.48;;;2.13;;
80565;SDS011;69915;54.862;10.730;2024-03-23T01:41:37;6.32;;;1.73;;
80565;SDS011;69915;54.862;10.730;2024-03-23T01:44:05;14.48;;;2.03;;
80565;SDS011;69915;54.862;10.730;2024-03-23T01:46:37;12.32;;;2.35;;
80565;SDS011;69915;54.862;10.730;2024-03-23T01:51:30;9.90;;;1.63;;
80565;SDS011;69915;54.862;10.730;2024-03-23T01:53:58;8.48;;;0.93;;
80565;SDS011;69915;54.862;10.730;2024-03-23T01:56:28;10.60;;;2.13;;
80565;SDS011;69915;54.862;10.730;2024-03-23T01:58:54;13.68;;;1.85;;
80565;SDS011;69915;54.862;10.730;2024-03-23T02:01:19;8.40;;;1.17;;
80565;SDS011;69915;54.862;10.730;2024-03-23T02:03:46;9.50;;;1.40;;
80565;SDS011;69915;54.862;10.730;2024-03-23T02:06:11;11.88;;;1.75;;
80565;SDS011;69915;54.862;10.730;2024-03-23T02:08:37;14.23;;;2.00;;
80565;SDS011;69915;54.862;10.730;2024-03-23T02:11:03;10.52;;;1.73;;
80565;SDS011;69915;54.862;10.730;2024-03-23T02:13:28;7.53;;;1.05;;
80565;SDS011;69915;54.862;10.730;2024-03-23T02:15:54;22.13;;;3.17;;
80565;SDS011;69915;54.862;10.730;2024-03-23T02:18:19;5.78;;;1.77;;
80565;SDS011;69915;54.862;10.730;2024-03-23T02:20:45;16.63;;;1.65;;
80565;SDS011;69915;54.862;10.730;2024-03-23T02:23:14;7.75;;;1.27;;
80565;SDS011;69915;54.862;10.730;2024-03-23T02:25:40;6.85;;;1.60;;
80565;SDS011;69915;54.862;10.730;2024-03-23T02:28:06;8.85;;;1.35;;
80565;SDS011;69915;54.862;10.730;2024-03-23T02:30:32;12.18;;;2.80;;
80565;SDS011;69915;54.862;10.730;2024-03-23T02:32:57;15.32;;;1.15;;
80565;SDS011;69915;54.862;10.730;2024-03-23T02:35:23;9.50;;;1.55;;
80565;SDS011;69915;54.862;10.730;2024-03-23T02:37:48;15.90;;;1.75;;
80565;SDS011;69915;54.862;10.730;2024-03-23T02:40:15;12.25;;;3.13;;
80565;SDS011;69915;54.862;10.730;2024-03-23T02:42:41;4.50;;;1.25;;
80565;SDS011;69915;54.862;10.730;2024-03-23T02:45:07;12.60;;;1.52;;
80565;SDS011;69915;54.862;10.730;2024-03-23T02:47:33;8.52;;;1.77;;
80565;SDS011;69915;54.862;10.730;2024-03-23T02:49:58;7.78;;;1.55;;
80565;SDS011;69915;54.862;10.730;2024-03-23T02:52:30;8.63;;;1.42;;
80565;SDS011;69915;54.862;10.730;2024-03-23T02:54:57;11.68;;;1.50;;
80565;SDS011;69915;54.862;10.730;2024-03-23T02:57:22;9.65;;;1.00;;
80565;SDS011;69915;54.862;10.730;2024-03-23T02:59:48;16.77;;;2.40;;
80565;SDS011;69915;54.862;10.730;2024-03-23T03:02:15;18.70;;;2.72;;
80565;SDS011;69915;54.862;10.730;2024-03-23T03:04:41;5.35;;;1.38;;
80565;SDS011;69915;54.862;10.730;2024-03-23T03:07:07;7.30;;;1.70;;
80565;SDS011;69915;54.862;10.730;2024-03-23T03:09:33;10.68;;;1.95;;
80565;SDS011;69915;54.862;10.730;2024-03-23T03:12:00;14.32;;;1.98;;
80565;SDS011;69915;54.862;10.730;2024-03-23T03:14:27;8.68;;;1.50;;
80565;SDS011;69915;54.862;10.730;2024-03-23T03:16:53;10.27;;;1.95;;
80565;SDS011;69915;54.862;10.730;2024-03-23T03:19:19;13.25;;;2.67;;
80565;SDS011;69915;54.862;10.730;2024-03-23T03:21:45;6.90;;;1.08;;
80565;SDS011;69915;54.862;10.730;2024-03-23T03:24:10;14.50;;;2.08;;
80565;SDS011;69915;54.862;10.730;2024-03-23T03:26:36;8.25;;;2.15;;
80565;SDS011;69915;54.862;10.730;2024-03-23T03:29:02;5.55;;;1.13;;
80565;SDS011;69915;54.862;10.730;2024-03-23T03:31:28;6.95;;;1.55;;
80565;SDS011;69915;54.862;10.730;2024-03-23T03:33:53;5.55;;;1.50;;
80565;SDS011;69915;54.862;10.730;2024-03-23T03:36:19;10.82;;;3.17;;
80565;SDS011;69915;54.862;10.730;2024-03-23T03:38:46;13.60;;;1.73;;
80565;SDS011;69915;54.862;10.730;2024-03-23T03:41:11;7.18;;;1.33;;
80565;SDS011;69915;54.862;10.730;2024-03-23T03:43:37;15.30;;;2.30;;
80565;SDS011;69915;54.862;10.730;2024-03-23T03:46:03;13.05;;;1.40;;
80565;SDS011;69915;54.862;10.730;2024-03-23T03:48:29;9.13;;;1.55;;
80565;SDS011;69915;54.862;10.730;2024-03-23T03:50:55;6.05;;;1.25;;
80565;SDS011;69915;54.862;10.730;2024-03-23T03:53:20;9.98;;;2.25;;
80565;SDS011;69915;54.862;10.730;2024-03-23T03:55:46;9.35;;;1.77;;
80565;SDS011;69915;54.862;10.730;2024-03-23T03:58:12;5.55;;;1.30;;
80565;SDS011;69915;54.862;10.730;2024-03-23T04:00:38;7.97;;;1.98;;
80565;SDS011;69915;54.862;10.730;2024-03-23T04:03:03;8.35;;;1.60;;
80565;SDS011;69915;54.862;10.730;2024-03-23T04:05:29;8.95;;;1.60;;
80565;SDS011;69915;54.862;10.730;2024-03-23T04:07:55;12.50;;;1.90;;
80565;SDS011;69915;54.862;10.730;2024-03-23T04:10:21;10.55;;;1.63;;
80565;SDS011;69915;54.862;10.730;2024-03-23T04:12:47;14.95;;;2.60;;
80565;SDS011;69915;54.862;10.730;2024-03-23T04:15:13;9.82;;;2.10;;
80565;SDS011;69915;54.862;10.730;2024-03-23T04:17:39;12.02;;;1.45;;
80565;SDS011;69915;54.862;10.730;2024-03-23T04:20:07;11.07;;;1.85;;
80565;SDS011;69915;54.862;10.730;2024-03-23T04:22:39;13.18;;;1.67;;
80565;SDS011;69915;54.862;10.730;2024-03-23T04:25:05;7.88;;;1.60;;
80565;SDS011;69915;54.862;10.730;2024-03-23T04:27:39;9.60;;;1.48;;
80565;SDS011;69915;54.862;10.730;2024-03-23T04:32:36;12.73;;;2.33;;
80565;SDS011;69915;54.862;10.730;2024-03-23T04:35:02;5.90;;;0.95;;
80565;SDS011;69915;54.862;10.730;2024-03-23T04:37:34;11.48;;;1.83;;
80565;SDS011;69915;54.862;10.730;2024-03-23T04:40:00;8.60;;;1.98;;
80565;SDS011;69915;54.862;10.730;2024-03-23T04:42:29;8.80;;;1.25;;
80565;SDS011;69915;54.862;10.730;2024-03-23T04:44:55;7.28;;;2.05;;
80565;SDS011;69915;54.862;10.730;2024-03-23T04:47:21;9.30;;;1.30;;
80565;SDS011;69915;54.862;10.730;2024-03-23T04:49:46;8.70;;;1.33;;
80565;SDS011;69915;54.862;10.730;2024-03-23T04:52:12;18.83;;;2.17;;
80565;SDS011;69915;54.862;10.730;2024-03-23T04:54:38;5.35;;;1.05;;
80565;SDS011;69915;54.862;10.730;2024-03-23T04:57:05;6.70;;;1.40;;
80565;SDS011;69915;54.862;10.730;2024-03-23T04:59:31;10.00;;;2.03;;
80565;SDS011;69915;54.862;10.730;2024-03-23T05:01:57;4.93;;;1.20;;
80565;SDS011;69915;54.862;10.730;2024-03-23T05:04:23;5.85;;;0.93;;
80565;SDS011;69915;54.862;10.730;2024-03-23T05:06:48;5.53;;;0.98;;
80565;SDS011;69915;54.862;10.730;2024-03-23T05:09:14;10.02;;;2.17;;
80565;SDS011;69915;54.862;10.730;2024-03-23T05:11:40;8.05;;;1.73;;
80565;SDS011;69915;54.862;10.730;2024-03-23T05:14:08;9.73;;;1.75;;
80565;SDS011;69915;54.862;10.730;2024-03-23T05:16:34;15.00;;;2.40;;
80565;SDS011;69915;54.862;10.730;2024-03-23T05:19:00;9.65;;;1.55;;
80565;SDS011;69915;54.862;10.730;2024-03-23T05:21:26;14.38;;;2.30;;
80565;SDS011;69915;54.862;10.730;2024-03-23T05:23:53;14.15;;;1.58;;
80565;SDS011;69915;54.862;10.730;2024-03-23T05:26:20;6.40;;;2.08;;
80565;SDS011;69915;54.862;10.730;2024-03-23T05:28:46;9.50;;;1.70;;
80565;SDS011;69915;54.862;10.730;2024-03-23T05:31:12;10.43;;;1.55;;
80565;SDS011;69915;54.862;10.730;2024-03-23T05:33:38;16.10;;;3.05;;
80565;SDS011;69915;54.862;10.730;2024-03-23T05:36:03;5.75;;;1.00;;
80565;SDS011;69915;54.862;10.730;2024-03-23T05:38:29;6.75;;;1.27;;
80565;SDS011;69915;54.862;10.730;2024-03-23T05:40:58;9.95;;;2.35;;
80565;SDS011;69915;54.862;10.730;2024-03-23T05:43:25;9.65;;;2.67;;
80565;SDS011;69915;54.862;10.730;2024-03-23T05:45:58;12.15;;;1.63;;
80565;SDS011;69915;54.862;10.730;2024-03-23T05:48:25;26.02;;;1.20;;
80565;SDS011;69915;54.862;10.730;2024-03-23T05:50:51;4.90;;;1.58;;
80565;SDS011;69915;54.862;10.730;2024-03-23T05:53:18;7.28;;;1.20;;
80565;SDS011;69915;54.862;10.730;2024-03-23T05:55:45;3.90;;;1.15;;
80565;SDS011;69915;54.862;10.730;2024-03-23T05:58:14;7.18;;;1.60;;
80565;SDS011;69915;54.862;10.730;2024-03-23T06:00:40;9.65;;;1.63;;
80565;SDS011;69915;54.862;10.730;2024-03-23T06:03:07;11.00;;;1.58;;
80565;SDS011;69915;54.862;10.730;2024-03-23T06:05:33;7.60;;;1.33;;
80565;SDS011;69915;54.862;10.730;2024-03-23T06:07:59;7.85;;;1.30;;
80565;SDS011;69915;54.862;10.730;2024-03-23T06:10:25;11.93;;;1.63;;
80565;SDS011;69915;54.862;10.730;2024-03-23T06:12:51;17.05;;;2.42;;
80565;SDS011;69915;54.862;10.730;2024-03-23T06:15:19;15.23;;;2.45;;
80565;SDS011;69915;54.862;10.730;2024-03-23T06:17:45;13.45;;;2.55;;
80565;SDS011;69915;54.862;10.730;2024-03-23T06:20:11;13.27;;;2.30;;
80565;SDS011;69915;54.862;10.730;2024-03-23T06:22:37;12.60;;;1.55;;
80565;SDS011;69915;54.862;10.730;2024-03-23T06:25:03;4.60;;;0.88;;
80565;SDS011;69915;54.862;10.730;2024-03-23T06:27:29;7.30;;;1.75;;
80565;SDS011;69915;54.862;10.730;2024-03-23T06:29:57;8.77;;;2.10;;
80565;SDS011;69915;54.862;10.730;2024-03-23T06:32:23;9.60;;;1.30;;
80565;SDS011;69915;54.862;10.730;2024-03-23T06:34:49;8.95;;;1.65;;
80565;SDS011;69915;54.862;10.730;2024-03-23T06:37:14;9.40;;;1.40;;
80565;SDS011;69915;54.862;10.730;2024-03-23T06:39:40;11.10;;;2.20;;
80565;SDS011;69915;54.862;10.730;2024-03-23T06:42:05;10.65;;;1.80;;
80565;SDS011;69915;54.862;10.730;2024-03-23T06:44:33;9.35;;;1.48;;
80565;SDS011;69915;54.862;10.730;2024-03-23T06:46:59;11.93;;;1.73;;
80565;SDS011;69915;54.862;10.730;2024-03-23T06:49:24;7.82;;;1.58;;
80565;SDS011;69915;54.862;10.730;2024-03-23T06:51:50;10.48;;;2.40;;
80565;SDS011;69915;54.862;10.730;2024-03-23T06:54:18;12.10;;;1.85;;
80565;SDS011;69915;54.862;10.730;2024-03-23T06:56:45;13.63;;;2.70;;
80565;SDS011;69915;54.862;10.730;2024-03-23T06:59:11;8.80;;;2.53;;
80565;SDS011;69915;54.862;10.730;2024-03-23T07:01:36;10.88;;;2.13;;
80565;SDS011;69915;54.862;10.730;2024-03-23T07:04:02;11.48;;;1.58;;
80565;SDS011;69915;54.862;10.730;2024-03-23T07:06:29;13.73;;;2.55;;
80565;SDS011;69915;54.862;10.730;2024-03-23T07:08:57;13.57;;;2.15;;
80565;SDS011;69915;54.862;10.730;2024-03-23T07:11:23;13.75;;;2.72;;
80565;SDS011;69915;54.862;10.730;2024-03-23T07:13:50;10.75;;;2.40;;
80565;SDS011;69915;54.862;10.730;2024-03-23T07:16:17;20.15;;;2.20;;
80565;SDS011;69915;54.862;10.730;2024-03-23T07:18:42;18.30;;;2.58;;
80565;SDS011;69915;54.862;10.730;2024-03-23T07:21:08;7.13;;;2.35;;
80565;SDS011;69915;54.862;10.730;2024-03-23T07:23:34;10.27;;;1.92;;
80565;SDS011;69915;54.862;10.730;2024-03-23T07:26:03;10.63;;;2.33;;
80565;SDS011;69915;54.862;10.730;2024-03-23T07:28:33;11.20;;;2.53;;
80565;SDS011;69915;54.862;10.730;2024-03-23T07:33:34;20.17;;;2.65;;
80565;SDS011;69915;54.862;10.730;2024-03-23T07:36:01;6.40;;;1.98;;
80565;SDS011;69915;54.862;10.730;2024-03-23T07:38:27;13.80;;;2.55;;
80565;SDS011;69915;54.862;10.730;2024-03-23T07:41:03;9.60;;;2.95;;
80565;SDS011;69915;54.862;10.730;2024-03-23T07:43:32;12.13;;;2.75;;
80565;SDS011;69915;54.862;10.730;2024-03-23T07:45:58;7.93;;;2.42;;
80565;SDS011;69915;54.862;10.730;2024-03-23T07:48:24;7.82;;;2.17;;
80565;SDS011;69915;54.862;10.730;2024-03-23T07:53:26;8.68;;;2.40;;
80565;SDS011;69915;54.862;10.730;2024-03-23T07:55:59;7.20;;;2.60;;
80565;SDS011;69915;54.862;10.730;2024-03-23T07:58:26;8.25;;;2.42;;
80565;SDS011;69915;54.862;10.730;2024-03-23T08:00:52;10.82;;;2.45;;
80565;SDS011;69915;54.862;10.730;2024-03-23T08:03:18;15.95;;;3.78;;
80565;SDS011;69915;54.862;10.730;2024-03-23T08:05:45;8.85;;;2.67;;
80565;SDS011;69915;54.862;10.730;2024-03-23T08:08:11;11.15;;;2.60;;
80565;SDS011;69915;54.862;10.730;2024-03-23T08:10:37;9.73;;;2.45;;
80565;SDS011;69915;54.862;10.730;2024-03-23T08:13:12;12.88;;;3.30;;
80565;SDS011;69915;54.862;10.730;2024-03-23T08:15:37;12.25;;;2.95;;
80565;SDS011;69915;54.862;10.730;2024-03-23T08:18:03;9.20;;;3.47;;
80565;SDS011;69915;54.862;10.730;2024-03-23T08:20:29;11.38;;;3.30;;
80565;SDS011;69915;54.862;10.730;2024-03-23T08:22:55;12.82;;;3.58;;
80565;SDS011;69915;54.862;10.730;2024-03-23T08:25:21;11.88;;;3.22;;
80565;SDS011;69915;54.862;10.730;2024-03-23T08:27:46;11.00;;;3.13;;
80565;SDS011;69915;54.862;10.730;2024-03-23T08:30:12;8.85;;;3.03;;
80565;SDS011;69915;54.862;10.730;2024-03-23T08:32:38;12.23;;;2.90;;
80565;SDS011;69915;54.862;10.730;2024-03-23T08:35:04;7.30;;;2.30;;
80565;SDS011;69915;54.862;10.730;2024-03-23T08:37:29;9.68;;;2.85;;
80565;SDS011;69915;54.862;10.730;2024-03-23T08:39:55;10.85;;;3.05;;
80565;SDS011;69915;54.862;10.730;2024-03-23T08:42:21;12.88;;;4.05;;
80565;SDS011;69915;54.862;10.730;2024-03-23T08:44:47;10.98;;;2.92;;
80565;SDS011;69915;54.862;10.730;2024-03-23T08:47:15;12.48;;;3.05;;
80565;SDS011;69915;54.862;10.730;2024-03-23T08:49:40;14.50;;;3.15;;
80565;SDS011;69915;54.862;10.730;2024-03-23T08:52:06;16.38;;;4.30;;
80565;SDS011;69915;54.862;10.730;2024-03-23T08:54:32;9.30;;;2.88;;
80565;SDS011;69915;54.862;10.730;2024-03-23T08:56:58;13.65;;;3.30;;
80565;SDS011;69915;54.862;10.730;2024-03-23T08:59:23;9.70;;;2.95;;
80565;SDS011;69915;54.862;10.730;2024-03-23T09:01:49;7.85;;;2.70;;
80565;SDS011;69915;54.862;10.730;2024-03-23T09:04:15;10.45;;;3.58;;
80565;SDS011;69915;54.862;10.730;2024-03-23T09:06:43;18.35;;;3.22;;
80565;SDS011;69915;54.862;10.730;2024-03-23T09:09:09;10.98;;;3.70;;
80565;SDS011;69915;54.862;10.730;2024-03-23T09:11:35;12.20;;;3.08;;
80565;SDS011;69915;54.862;10.730;2024-03-23T09:14:00;9.35;;;3.28;;
80565;SDS011;69915;54.862;10.730;2024-03-23T09:16:26;8.27;;;3.65;;
80565;SDS011;69915;54.862;10.730;2024-03-23T09:18:52;11.50;;;3.10;;
80565;SDS011;69915;54.862;10.730;2024-03-23T09:21:18;14.63;;;3.63;;
80565;SDS011;69915;54.862;10.730;2024-03-23T09:23:43;8.27;;;3.10;;
80565;SDS011;69915;54.862;10.730;2024-03-23T09:26:09;10.00;;;2.80;;
80565;SDS011;69915;54.862;10.730;2024-03-23T09:28:35;18.13;;;3.38;;
80565;SDS011;69915;54.862;10.730;2024-03-23T09:31:08;9.68;;;3.13;;
80565;SDS011;69915;54.862;10.730;2024-03-23T09:33:35;13.68;;;3.17;;
80565;SDS011;69915;54.862;10.730;2024-03-23T09:36:04;11.80;;;2.85;;
80565;SDS011;69915;54.862;10.730;2024-03-23T09:38:30;9.75;;;2.80;;
80565;SDS011;69915;54.862;10.730;2024-03-23T09:40:56;14.05;;;3.58;;
80565;SDS011;69915;54.862;10.730;2024-03-23T09:43:22;16.52;;;5.28;;
80565;SDS011;69915;54.862;10.730;2024-03-23T09:45:49;16.30;;;4.50;;
80565;SDS011;69915;54.862;10.730;2024-03-23T09:48:14;14.82;;;3.05;;
80565;SDS011;69915;54.862;10.730;2024-03-23T09:50:41;9.73;;;3.08;;
80565;SDS011;69915;54.862;10.730;2024-03-23T09:53:11;14.90;;;3.40;;
80565;SDS011;69915;54.862;10.730;2024-03-23T09:55:39;14.52;;;3.25;;
80565;SDS011;69915;54.862;10.730;2024-03-23T09:58:06;16.63;;;3.45;;
80565;SDS011;69915;54.862;10.730;2024-03-23T10:00:33;11.10;;;3.10;;
80565;SDS011;69915;54.862;10.730;2024-03-23T10:03:00;11.65;;;2.22;;
80565;SDS011;69915;54.862;10.730;2024-03-23T10:05:30;9.38;;;2.13;;
80565;SDS011;69915;54.862;10.730;2024-03-23T10:08:19;7.32;;;2.10;;
80565;SDS011;69915;54.862;10.730;2024-03-23T10:10:45;6.07;;;1.45;;
80565;SDS011;69915;54.862;10.730;2024-03-23T10:13:23;5.78;;;1.25;;
80565;SDS011;69915;54.862;10.730;2024-03-23T10:15:54;7.38;;;1.30;;
80565;SDS011;69915;54.862;10.730;2024-03-23T10:18:21;4.30;;;1.20;;
80565;SDS011;69915;54.862;10.730;2024-03-23T10:21:31;8.25;;;1.45;;
80565;SDS011;69915;54.862;10.730;2024-03-23T10:23:39;4.72;;;1.17;;
80565;SDS011;69915;54.862;10.730;2024-03-23T10:26:19;3.67;;;1.10;;
80565;SDS011;69915;54.862;10.730;2024-03-23T10:28:54;5.28;;;0.98;;
80565;SDS011;69915;54.862;10.730;2024-03-23T10:33:58;3.17;;;0.90;;
80565;SDS011;69915;54.862;10.730;2024-03-23T10:36:26;2.97;;;0.88;;
80565;SDS011;69915;54.862;10.730;2024-03-23T10:38:52;5.82;;;0.80;;
80565;SDS011;69915;54.862;10.730;2024-03-23T10:41:19;8.00;;;1.35;;
80565;SDS011;69915;54.862;10.730;2024-03-23T10:43:45;4.45;;;1.65;;
80565;SDS011;69915;54.862;10.730;2024-03-23T10:46:12;4.90;;;1.27;;
80565;SDS011;69915;54.862;10.730;2024-03-23T10:48:38;3.92;;;0.88;;
80565;SDS011;69915;54.862;10.730;2024-03-23T10:51:04;2.58;;;0.73;;
80565;SDS011;69915;54.862;10.730;2024-03-23T10:53:34;5.32;;;1.13;;
80565;SDS011;69915;54.862;10.730;2024-03-23T10:56:00;7.35;;;0.95;;
80565;SDS011;69915;54.862;10.730;2024-03-23T10:58:43;4.82;;;1.27;;
80565;SDS011;69915;54.862;10.730;2024-03-23T11:01:12;9.75;;;1.70;;
80565;SDS011;69915;54.862;10.730;2024-03-23T11:03:39;7.30;;;1.00;;
80565;SDS011;69915;54.862;10.730;2024-03-23T11:06:09;7.25;;;1.00;;
80565;SDS011;69915;54.862;10.730;2024-03-23T11:08:38;5.43;;;1.23;;
80565;SDS011;69915;54.862;10.730;2024-03-23T11:11:23;4.38;;;1.33;;
80565;SDS011;69915;54.862;10.730;2024-03-23T11:13:50;8.07;;;1.60;;
80565;SDS011;69915;54.862;10.730;2024-03-23T11:16:21;9.15;;;2.10;;
80565;SDS011;69915;54.862;10.730;2024-03-23T11:18:47;4.55;;;1.67;;
80565;SDS011;69915;54.862;10.730;2024-03-23T11:24:15;3.30;;;1.08;;
80565;SDS011;69915;54.862;10.730;2024-03-23T11:26:41;2.22;;;0.73;;
80565;SDS011;69915;54.862;10.730;2024-03-23T11:29:10;14.10;;;1.25;;
80565;SDS011;69915;54.862;10.730;2024-03-23T11:31:49;4.22;;;1.15;;
80565;SDS011;69915;54.862;10.730;2024-03-23T11:34:17;4.78;;;1.23;;
80565;SDS011;69915;54.862;10.730;2024-03-23T11:36:44;6.28;;;1.27;;
80565;SDS011;69915;54.862;10.730;2024-03-23T11:41:49;6.95;;;1.15;;
80565;SDS011;69915;54.862;10.730;2024-03-23T11:44:17;7.15;;;1.25;;
80565;SDS011;69915;54.862;10.730;2024-03-23T11:46:43;9.75;;;1.50;;
80565;SDS011;69915;54.862;10.730;2024-03-23T11:49:25;6.53;;;1.10;;
80565;SDS011;69915;54.862;10.730;2024-03-23T11:51:52;5.78;;;1.42;;
80565;SDS011;69915;54.862;10.730;2024-03-23T11:54:20;7.40;;;1.17;;
80565;SDS011;69915;54.862;10.730;2024-03-23T11:56:56;6.75;;;1.10;;
80565;SDS011;69915;54.862;10.730;2024-03-23T11:59:36;4.82;;;1.38;;
80565;SDS011;69915;54.862;10.730;2024-03-23T12:02:09;5.20;;;1.10;;
80565;SDS011;69915;54.862;10.730;2024-03-23T12:04:36;12.10;;;2.08;;
80565;SDS011;69915;54.862;10.730;2024-03-23T12:07:13;3.17;;;0.73;;
80565;SDS011;69915;54.862;10.730;2024-03-23T12:10:01;6.72;;;0.93;;
80565;SDS011;69915;54.862;10.730;2024-03-23T12:12:29;3.55;;;0.57;;
80565;SDS011;69915;54.862;10.730;2024-03-23T12:15:02;4.53;;;0.60;;
80565;SDS011;69915;54.862;10.730;2024-03-23T12:17:33;3.17;;;0.60;;
80565;SDS011;69915;54.862;10.730;2024-03-23T12:20:03;1.48;;;0.40;;
80565;SDS011;69915;54.862;10.730;2024-03-23T12:22:30;7.40;;;1.02;;
80565;SDS011;69915;54.862;10.730;2024-03-23T12:24:56;6.88;;;1.17;;
80565;SDS011;69915;54.862;10.730;2024-03-23T12:27:22;2.33;;;0.20;;
80565;SDS011;69915;54.862;10.730;2024-03-23T12:29:49;4.13;;;1.20;;
80565;SDS011;69915;54.862;10.730;2024-03-23T12:32:15;2.10;;;0.52;;
80565;SDS011;69915;54.862;10.730;2024-03-23T12:34:42;2.97;;;0.68;;
80565;SDS011;69915;54.862;10.730;2024-03-23T12:37:08;8.90;;;0.73;;
80565;SDS011;69915;54.862;10.730;2024-03-23T12:39:34;9.00;;;0.98;;
80565;SDS011;69915;54.862;10.730;2024-03-23T12:42:02;4.57;;;1.05;;
80565;SDS011;69915;54.862;10.730;2024-03-23T12:44:29;8.57;;;0.60;;
80565;SDS011;69915;54.862;10.730;2024-03-23T12:46:55;2.67;;;0.70;;
80565;SDS011;69915;54.862;10.730;2024-03-23T12:49:21;4.93;;;0.70;;
80565;SDS011;69915;54.862;10.730;2024-03-23T12:51:56;2.85;;;0.68;;
80565;SDS011;69915;54.862;10.730;2024-03-23T12:54:23;3.60;;;0.88;;
80565;SDS011;69915;54.862;10.730;2024-03-23T12:56:50;4.35;;;1.23;;
80565;SDS011;69915;54.862;10.730;2024-03-23T12:59:16;4.25;;;0.80;;
80565;SDS011;69915;54.862;10.730;2024-03-23T13:01:44;4.70;;;0.60;;
80565;SDS011;69915;54.862;10.730;2024-03-23T13:04:10;3.22;;;0.68;;
80565;SDS011;69915;54.862;10.730;2024-03-23T13:06:36;2.40;;;0.43;;
80565;SDS011;69915;54.862;10.730;2024-03-23T13:09:03;5.47;;;0.63;;
80565;SDS011;69915;54.862;10.730;2024-03-23T13:11:30;7.18;;;1.30;;
80565;SDS011;69915;54.862;10.730;2024-03-23T13:13:57;4.70;;;0.70;;
80565;SDS011;69915;54.862;10.730;2024-03-23T13:16:22;3.05;;;1.08;;
80565;SDS011;69915;54.862;10.730;2024-03-23T13:18:49;4.38;;;1.17;;
80565;SDS011;69915;54.862;10.730;2024-03-23T13:21:15;7.20;;;1.35;;
80565;SDS011;69915;54.862;10.730;2024-03-23T13:23:42;4.97;;;1.05;;
80565;SDS011;69915;54.862;10.730;2024-03-23T13:26:11;6.80;;;0.88;;
80565;SDS011;69915;54.862;10.730;2024-03-23T13:28:37;4.32;;;0.40;;
80565;SDS011;69915;54.862;10.730;2024-03-23T13:31:03;4.72;;;0.82;;
80565;SDS011;69915;54.862;10.730;2024-03-23T13:33:29;4.78;;;1.17;;
80565;SDS011;69915;54.862;10.730;2024-03-23T13:35:57;8.20;;;1.15;;
80565;SDS011;69915;54.862;10.730;2024-03-23T13:38:23;7.70;;;1.05;;
80565;SDS011;69915;54.862;10.730;2024-03-23T13:43:17;34.90;;;3.72;;
80565;SDS011;69915;54.862;10.730;2024-03-23T13:45:45;3.30;;;1.02;;
80565;SDS011;69915;54.862;10.730;2024-03-23T13:48:14;6.82;;;0.88;;
80565;SDS011;69915;54.862;10.730;2024-03-23T13:50:41;5.35;;;1.08;;
80565;SDS011;69915;54.862;10.730;2024-03-23T13:53:07;4.47;;;0.57;;
80565;SDS011;69915;54.862;10.730;2024-03-23T13:55:34;5.55;;;0.80;;
80565;SDS011;69915;54.862;10.730;2024-03-23T13:58:01;4.63;;;0.88;;
80565;SDS011;69915;54.862;10.730;2024-03-23T14:00:29;4.15;;;0.45;;
80565;SDS011;69915;54.862;10.730;2024-03-23T14:02:57;4.75;;;0.88;;
80565;SDS011;69915;54.862;10.730;2024-03-23T14:05:23;2.35;;;0.68;;
80565;SDS011;69915;54.862;10.730;2024-03-23T14:07:50;2.70;;;0.93;;
80565;SDS011;69915;54.862;10.730;2024-03-23T14:10:16;1.65;;;0.85;;
80565;SDS011;69915;54.862;10.730;2024-03-23T14:12:42;3.50;;;0.88;;
80565;SDS011;69915;54.862;10.730;2024-03-23T14:15:09;1.55;;;0.47;;
80565;SDS011;69915;54.862;10.730;2024-03-23T14:17:34;1.90;;;0.60;;
80565;SDS011;69915;54.862;10.730;2024-03-23T14:20:00;7.60;;;0.90;;
80565;SDS011;69915;54.862;10.730;2024-03-23T14:22:27;3.78;;;0.63;;
80565;SDS011;69915;54.862;10.730;2024-03-23T14:24:53;5.45;;;0.75;;
80565;SDS011;69915;54.862;10.730;2024-03-23T14:27:19;2.08;;;0.82;;
80565;SDS011;69915;54.862;10.730;2024-03-23T14:29:48;5.30;;;0.93;;
80565;SDS011;69915;54.862;10.730;2024-03-23T14:32:14;2.58;;;0.93;;
80565;SDS011;69915;54.862;10.730;2024-03-23T14:34:41;6.93;;;0.95;;
80565;SDS011;69915;54.862;10.730;2024-03-23T14:37:07;5.72;;;0.70;;
80565;SDS011;69915;54.862;10.730;2024-03-23T14:39:33;6.25;;;1.08;;
80565;SDS011;69915;54.862;10.730;2024-03-23T14:42:06;4.13;;;0.70;;
80565;SDS011;69915;54.862;10.730;2024-03-23T14:44:34;10.55;;;2.20;;
80565;SDS011;69915;54.862;10.730;2024-03-23T14:47:00;6.55;;;0.65;;
80565;SDS011;69915;54.862;10.730;2024-03-23T14:49:26;2.88;;;0.55;;
80565;SDS011;69915;54.862;10.730;2024-03-23T14:51:52;4.47;;;0.88;;
80565;SDS011;69915;54.862;10.730;2024-03-23T14:54:18;7.97;;;0.85;;
80565;SDS011;69915;54.862;10.730;2024-03-23T14:56:44;6.78;;;1.40;;
80565;SDS011;69915;54.862;10.730;2024-03-23T14:59:10;5.78;;;1.17;;
80565;SDS011;69915;54.862;10.730;2024-03-23T15:01:36;3.20;;;1.25;;
80565;SDS011;69915;54.862;10.730;2024-03-23T15:04:02;6.78;;;0.88;;
80565;SDS011;69915;54.862;10.730;2024-03-23T15:06:29;5.97;;;1.08;;
80565;SDS011;69915;54.862;10.730;2024-03-23T15:08:55;8.32;;;1.48;;
80565;SDS011;69915;54.862;10.730;2024-03-23T15:11:21;4.43;;;0.90;;
80565;SDS011;69915;54.862;10.730;2024-03-23T15:13:49;4.32;;;0.98;;
80565;SDS011;69915;54.862;10.730;2024-03-23T15:16:16;7.32;;;1.10;;
80565;SDS011;69915;54.862;10.730;2024-03-23T15:18:46;3.80;;;0.80;;
80565;SDS011;69915;54.862;10.730;2024-03-23T15:21:12;3.88;;;1.13;;
80565;SDS011;69915;54.862;10.730;2024-03-23T15:23:40;10.85;;;1.00;;
80565;SDS011;69915;54.862;10.730;2024-03-23T15:26:09;9.27;;;1.08;;
80565;SDS011;69915;54.862;10.730;2024-03-23T15:28:35;8.57;;;1.67;;
80565;SDS011;69915;54.862;10.730;2024-03-23T15:31:21;6.32;;;0.70;;
80565;SDS011;69915;54.862;10.730;2024-03-23T15:33:46;7.32;;;0.93;;
80565;SDS011;69915;54.862;10.730;2024-03-23T15:36:13;2.47;;;0.38;;
80565;SDS011;69915;54.862;10.730;2024-03-23T15:38:39;6.03;;;0.90;;
80565;SDS011;69915;54.862;10.730;2024-03-23T15:41:05;9.77;;;1.60;;
80565;SDS011;69915;54.862;10.730;2024-03-23T15:43:32;6.07;;;1.05;;